Time;durP1;ratioP1;P1;durP2;ratioP2;P2;SDS_P1;SDS_P2;PMS_P1;PMS_P2;Temp;Humidity;BMP_temperature;BMP_pressure;BME280_temperature;BME280_humidity;BME280_pressure;Samples;Min_cycle;Max_cycle;Signal;HPM_P1;HPM_P2
2021/01/03 00:01:48;;;;;;;15.63;4.00;;;24.70;55.10;;;;;;6398172;22;19904;-73
2021/01/03 00:04:54;;;;;;;11.15;3.30;;;24.60;55.00;;;;;;6398898;22;20406;-73
2021/01/03 00:07:40;;;;;;;;;;;24.60;55.00;;;;;;6399202;22;19997;-73
2021/01/03 00:10:47;;;;;;;12.82;4.25;;;24.60;55.00;;;;;;6397352;22;19941;-72
2021/01/03 00:13:32;;;;;;;;;;;24.60;54.90;;;;;;6399156;22;20017;-73
2021/01/03 00:16:38;;;;;;;19.33;4.47;;;24.60;55.10;;;;;;6399288;22;19910;-73
2021/01/03 00:19:24;;;;;;;;;;;24.60;55.10;;;;;;6397789;22;20330;-73
2021/01/03 00:22:30;;;;;;;16.98;4.72;;;24.60;55.30;;;;;;6399058;22;19902;-74
2021/01/03 00:25:36;;;;;;;13.07;3.53;;;24.60;55.50;;;;;;6399038;22;20012;-73
2021/01/03 00:28:22;;;;;;;;;;;24.50;55.70;;;;;;6397453;22;20018;-73
2021/01/03 00:31:28;;;;;;;10.60;4.68;;;24.50;56.00;;;;;;6397890;22;19925;-73
2021/01/03 00:34:34;;;;;;;14.60;3.17;;;24.50;56.30;;;;;;6398490;22;20001;-73
2021/01/03 00:37:40;;;;;;;20.00;5.45;;;24.40;56.40;;;;;;6398522;22;20002;-74
2021/01/03 00:40:47;;;;;;;15.27;5.05;;;24.50;56.60;;;;;;6397039;22;20002;-73
2021/01/03 00:43:33;;;;;;;;;;;24.40;56.70;;;;;;6397967;22;20006;-73
2021/01/03 00:46:39;;;;;;;13.32;5.40;;;24.40;56.80;;;;;;6398182;22;20362;-76
2021/01/03 00:49:24;;;;;;;;;;;24.40;56.80;;;;;;6397838;22;19994;-74
2021/01/03 00:52:31;;;;;;;13.05;4.63;;;24.40;56.90;;;;;;6398120;22;19897;-73
2021/01/03 00:55:37;;;;;;;15.57;5.55;;;24.40;56.90;;;;;;6398296;22;19994;-74
2021/01/03 00:58:43;;;;;;;14.38;5.30;;;24.40;56.80;;;;;;6396977;22;19998;-73
2021/01/03 01:01:49;;;;;;;15.95;4.00;;;24.40;56.80;;;;;;6397277;22;20033;-73
2021/01/03 01:04:55;;;;;;;18.40;4.82;;;24.30;56.80;;;;;;6398328;22;20013;-74
2021/01/03 01:08:01;;;;;;;12.77;5.32;;;24.40;56.80;;;;;;6397577;22;20559;-74
2021/01/03 01:10:47;;;;;;;;;;;24.30;56.70;;;;;;6397537;22;20360;-73
2021/01/03 01:13:53;;;;;;;11.20;6.00;;;24.30;56.80;;;;;;6398470;22;19898;-74
2021/01/03 01:16:59;;;;;;;12.55;4.88;;;24.30;56.70;;;;;;6398410;22;20002;-73
2021/01/03 01:20:05;;;;;;;13.48;3.45;;;24.30;56.70;;;;;;6397482;22;20022;-73
2021/01/03 01:22:51;;;;;;;;;;;24.30;56.80;;;;;;6398670;22;20078;-73
2021/01/03 01:25:57;;;;;;;15.77;4.43;;;24.20;56.70;;;;;;6397766;22;19906;-74
2021/01/03 01:29:03;;;;;;;9.30;3.03;;;24.20;56.60;;;;;;6396801;22;20314;-73
2021/01/03 01:32:09;;;;;;;12.13;3.45;;;24.20;56.60;;;;;;6397450;22;20019;-73
2021/01/03 01:35:15;;;;;;;10.00;3.05;;;24.20;56.60;;;;;;6398437;22;20351;-73
2021/01/03 01:38:21;;;;;;;9.65;3.33;;;24.20;56.50;;;;;;6397598;22;19998;-73
2021/01/03 01:41:27;;;;;;;11.63;4.10;;;24.20;56.50;;;;;;6396292;22;20409;-73
2021/01/03 01:44:13;;;;;;;;;;;24.20;56.50;;;;;;6398273;22;20014;-73
2021/01/03 01:47:22;;;;;;;15.05;3.45;;;24.20;56.50;;;;;;6396882;22;20427;-73
2021/01/03 01:50:28;;;;;;;10.40;3.17;;;24.10;56.30;;;;;;6395352;22;20118;-73
2021/01/03 01:53:34;;;;;;;13.75;3.38;;;24.10;56.20;;;;;;6396375;22;20009;-74
2021/01/03 01:56:35;;;;;;;13.65;3.67;;;24.10;56.20;;;;;;6396936;22;19997;-74
2021/01/03 01:59:53;;;;;;;12.77;3.63;;;24.10;56.20;;;;;;6395373;22;20327;-73
2021/01/03 02:03:02;;;;;;;9.00;3.75;;;24.10;56.10;;;;;;6395599;22;20009;-73
2021/01/03 02:05:58;;;;;;;14.55;3.58;;;24.10;56.10;;;;;;6396322;22;20425;-73
2021/01/03 02:09:19;;;;;;;12.15;3.28;;;24.10;56.00;;;;;;6397028;22;20002;-73
2021/01/03 02:12:28;;;;;;;9.80;2.90;;;24.10;56.10;;;;;;6395577;22;20080;-73
2021/01/03 02:15:34;;;;;;;13.75;5.43;;;24.00;56.00;;;;;;6395652;22;20445;-75
2021/01/03 02:18:40;;;;;;;15.68;9.60;;;24.00;56.00;;;;;;6395093;22;20009;-75
2021/01/03 02:21:32;;;;;;;16.27;9.35;;;24.00;56.00;;;;;;6397656;22;20351;-74
2021/01/03 02:24:38;;;;;;;15.45;6.97;;;24.00;56.00;;;;;;6396566;22;20013;-73
2021/01/03 02:27:24;;;;;;;14.55;4.88;;;24.00;56.00;;;;;;6396009;22;20024;-72
2021/01/03 02:30:30;;;;;;;17.83;4.10;;;24.00;56.10;;;;;;6396058;22;20009;-75
2021/01/03 02:33:22;;;;;;;;;;;24.00;56.10;;;;;;6396987;22;20077;-74
2021/01/03 02:36:28;;;;;;;11.00;3.55;;;24.00;56.10;;;;;;6397058;22;19902;-73
2021/01/03 02:39:14;;;;;;;;;;;24.00;56.10;;;;;;6396199;22;20006;-73
2021/01/03 02:42:20;;;;;;;9.95;3.60;;;24.00;56.20;;;;;;6394991;22;19898;-73
2021/01/03 02:45:26;;;;;;;11.50;4.22;;;24.00;56.20;;;;;;6394216;22;20013;-72
2021/01/03 02:48:12;;;;;;;;;;;23.90;56.10;;;;;;6394540;22;20089;-73
2021/01/03 02:51:18;;;;;;;19.80;4.22;;;23.90;56.10;;;;;;6394891;22;19904;-73
2021/01/03 02:54:24;;;;;;;15.43;4.53;;;23.90;56.00;;;;;;6400192;22;20001;-74
2021/01/03 02:57:30;;;;;;;23.38;11.13;;;23.90;56.00;;;;;;6372007;22;20380;-74
2021/01/03 03:00:39;;;;;;;14.32;8.57;;;23.90;56.00;;;;;;6400669;22;20424;-74
2021/01/03 03:03:45;;;;;;;14.65;5.63;;;23.90;55.90;;;;;;6399344;22;20002;-73
2021/01/03 03:06:51;;;;;;;11.25;5.93;;;23.90;55.90;;;;;;6400484;22;20008;-74
2021/01/03 03:09:58;;;;;;;9.55;4.63;;;23.90;56.00;;;;;;6400914;22;20002;-74
2021/01/03 03:13:10;;;;;;;11.60;3.53;;;23.80;56.00;;;;;;6399013;22;20025;-74
2021/01/03 03:16:16;;;;;;;9.73;3.25;;;23.80;56.00;;;;;;6393561;22;20073;-73
2021/01/03 03:19:22;;;;;;;12.80;4.10;;;23.80;56.10;;;;;;6401807;22;19998;-73
2021/01/03 03:22:28;;;;;;;12.50;3.65;;;23.80;56.10;;;;;;6400838;22;20461;-74
2021/01/03 03:25:34;;;;;;;9.52;3.60;;;23.80;56.10;;;;;;6399853;22;20097;-70
2021/01/03 03:28:40;;;;;;;10.52;3.17;;;23.80;56.10;;;;;;6400105;22;20380;-73
2021/01/03 03:31:26;;;;;;;;;;;23.80;56.20;;;;;;6401447;22;20014;-73
2021/01/03 03:34:32;;;;;;;11.95;6.80;;;23.70;56.30;;;;;;6399221;22;19904;-73
2021/01/03 03:37:38;;;;;;;14.80;4.68;;;23.70;56.40;;;;;;6399807;22;19994;-73
2021/01/03 03:40:44;;;;;;;11.80;5.35;;;23.70;56.70;;;;;;6400494;22;20010;-73
2021/01/03 03:43:50;;;;;;;12.23;4.05;;;23.70;56.80;;;;;;6400577;22;20048;-74
2021/01/03 03:46:56;;;;;;;11.68;3.55;;;23.70;57.00;;;;;;6399630;22;20002;-74
2021/01/03 03:50:02;;;;;;;19.27;3.97;;;23.70;57.10;;;;;;6400542;22;20009;-74
2021/01/03 03:53:08;;;;;;;14.02;4.13;;;23.70;57.20;;;;;;6400574;22;20002;-74
2021/01/03 03:56:15;;;;;;;14.32;4.78;;;23.60;57.20;;;;;;6399106;22;20389;-74
2021/01/03 03:59:21;;;;;;;7.82;3.42;;;23.70;57.20;;;;;;6399536;22;20115;-74
2021/01/03 04:02:27;;;;;;;11.55;3.95;;;23.60;57.10;;;;;;6400690;22;20001;-74
2021/01/03 04:05:33;;;;;;;9.70;3.05;;;23.60;56.90;;;;;;6398648;22;20460;-74
2021/01/03 04:08:55;;;;;;;12.70;3.88;;;23.60;56.80;;;;;;6395975;22;20025;-74
2021/01/03 04:11:41;;;;;;;;;;;23.60;56.60;;;;;;6371087;22;20131;-71
2021/01/03 04:14:47;;;;;;;10.68;3.63;;;23.60;56.60;;;;;;6398891;22;19905;-74
2021/01/03 04:17:53;;;;;;;13.15;5.57;;;23.60;56.60;;;;;;6397556;22;20005;-74
2021/01/03 04:20:59;;;;;;;14.35;6.68;;;23.60;56.90;;;;;;6369455;22;20005;-74
2021/01/03 04:23:25;;;;;;;17.98;5.70;;;23.60;57.20;;;;;;6398300;22;20010;-73
2021/01/03 04:25:52;;;;;;;15.40;4.20;;;23.60;57.50;;;;;;6396957;22;20080;-74
2021/01/03 04:28:18;;;;;;;17.80;4.40;;;23.60;57.90;;;;;;6399267;22;20023;-73
2021/01/03 04:30:45;;;;;;;17.73;3.97;;;23.60;58.10;;;;;;6397858;22;20005;-73
2021/01/03 04:33:11;;;;;;;12.40;3.42;;;23.60;58.30;;;;;;6397981;22;20002;-73
2021/01/03 04:35:38;;;;;;;12.73;4.45;;;23.60;58.60;;;;;;6399001;22;19998;-73
2021/01/03 04:38:04;;;;;;;13.20;3.78;;;23.60;58.70;;;;;;6397308;22;20005;-73
2021/01/03 04:40:32;;;;;;;12.20;3.78;;;23.60;58.80;;;;;;6399110;22;20006;-73
2021/01/03 04:43:01;;;;;;;10.73;3.40;;;23.60;59.00;;;;;;6396916;22;20325;-73
2021/01/03 04:45:37;;;;;;;14.30;3.40;;;23.60;59.10;;;;;;6398079;22;20010;-74
2021/01/03 04:48:07;;;;;;;12.93;3.90;;;23.60;59.30;;;;;;6397975;22;20380;-74
2021/01/03 04:50:49;;;;;;;12.52;5.60;;;23.60;59.40;;;;;;6398033;22;19998;-73
2021/01/03 04:53:29;;;;;;;11.90;4.78;;;23.60;59.50;;;;;;6399099;22;20009;-73
2021/01/03 04:56:29;;;;;;;15.60;6.22;;;23.60;59.60;;;;;;6397148;22;19994;-73
2021/01/03 04:59:11;;;;;;;21.35;7.38;;;23.60;59.60;;;;;;6397698;22;20060;-72
2021/01/03 05:02:13;;;;;;;13.00;5.88;;;23.60;59.70;;;;;;6398587;22;19998;-73
2021/01/03 05:04:55;;;;;;;12.00;4.15;;;23.60;59.70;;;;;;6396797;22;20009;-73
2021/01/03 05:07:38;;;;;;;13.55;3.42;;;23.60;59.80;;;;;;6397752;22;20001;-72
2021/01/03 05:10:13;;;;;;;13.80;4.13;;;23.70;60.70;;;;;;6397988;22;20001;-73
2021/01/03 05:13:01;;;;;;;20.00;4.18;;;23.70;60.70;;;;;;6397164;22;19998;-73
2021/01/03 05:15:34;;;;;;;17.88;4.18;;;23.60;60.80;;;;;;6397150;22;20006;-72
2021/01/03 05:18:04;;;;;;;10.57;3.65;;;23.40;61.20;;;;;;6397458;22;20002;-72
2021/01/03 05:20:30;;;;;;;12.57;4.57;;;23.40;61.70;;;;;;6369929;22;20040;-74
2021/01/03 05:23:21;;;;;;;13.10;3.80;;;23.30;62.10;;;;;;6397526;22;19994;-74
2021/01/03 05:25:48;;;;;;;14.77;5.40;;;23.20;62.80;;;;;;6396689;22;20021;-74
2021/01/03 05:28:31;;;;;;;15.60;5.97;;;23.20;61.90;;;;;;6398697;22;20302;-74
2021/01/03 05:31:21;;;;;;;19.83;5.13;;;23.30;61.60;;;;;;6397725;22;19998;-73
2021/01/03 05:34:08;;;;;;;12.35;4.95;;;23.40;61.30;;;;;;6397817;22;20317;-72
2021/01/03 05:36:50;;;;;;;14.63;4.18;;;23.50;61.00;;;;;;6398251;22;20027;-72
2021/01/03 05:39:23;;;;;;;13.45;4.03;;;23.50;60.70;;;;;;6396298;22;20032;-76
2021/01/03 05:42:18;;;;;;;13.80;4.53;;;23.60;60.50;;;;;;6398004;22;20002;-72
2021/01/03 05:44:57;;;;;;;12.32;4.22;;;23.60;60.30;;;;;;6397588;22;20014;-75
2021/01/03 05:47:33;;;;;;;11.20;3.92;;;23.70;60.20;;;;;;6396515;22;20005;-75
2021/01/03 05:50:24;;;;;;;10.95;3.38;;;23.80;60.00;;;;;;6397643;22;20280;-75
2021/01/03 05:53:17;;;;;;;12.07;4.55;;;23.80;59.90;;;;;;6397635;22;20002;-73
2021/01/03 05:56:13;;;;;;;10.05;4.32;;;23.80;59.80;;;;;;6396682;22;20000;-76
2021/01/03 05:58:52;;;;;;;10.18;3.13;;;23.90;59.70;;;;;;6397274;22;20001;-73
2021/01/03 06:01:23;;;;;;;14.20;5.00;;;23.90;59.50;;;;;;6396944;22;20036;-74
2021/01/03 06:04:01;;;;;;;12.18;4.22;;;24.00;59.50;;;;;;6396893;22;20005;-76
2021/01/03 06:06:43;;;;;;;10.85;4.55;;;24.00;59.30;;;;;;6398044;22;20006;-76
2021/01/03 06:09:10;;;;;;;8.35;2.83;;;24.10;59.20;;;;;;6396618;22;20051;-73
2021/01/03 06:11:37;;;;;;;13.07;3.45;;;24.10;59.10;;;;;;6398438;22;20004;-74
2021/01/03 06:14:03;;;;;;;13.35;3.03;;;24.10;58.90;;;;;;6396290;22;20353;-75
2021/01/03 06:16:34;;;;;;;12.05;4.07;;;24.20;58.90;;;;;;6396415;22;19997;-75
2021/01/03 06:19:07;;;;;;;14.93;4.35;;;24.20;58.80;;;;;;6395557;22;19998;-74
2021/01/03 06:21:42;;;;;;;13.43;3.80;;;24.30;58.60;;;;;;6395615;22;19997;-74
2021/01/03 06:24:19;;;;;;;12.30;3.67;;;24.30;58.50;;;;;;6395926;22;20093;-73
2021/01/03 06:26:52;;;;;;;13.65;2.92;;;24.30;58.40;;;;;;6395546;22;20081;-75
2021/01/03 06:29:31;;;;;;;15.43;3.97;;;24.40;58.40;;;;;;6397204;22;19998;-77
2021/01/03 06:32:26;;;;;;;10.80;3.25;;;24.40;58.20;;;;;;6397184;22;20025;-75
2021/01/03 06:35:35;;;;;;;11.35;3.53;;;24.50;58.10;;;;;;6348829;22;20028;-76
2021/01/03 06:38:30;;;;;;;12.30;4.03;;;24.50;58.00;;;;;;6391258;22;20002;-78
2021/01/03 06:41:44;;;;;;;16.90;6.07;;;24.60;57.90;;;;;;6396713;22;20077;-76
2021/01/03 06:44:59;;;;;;;12.85;5.53;;;24.60;57.80;;;;;;6394800;22;20017;-75
2021/01/03 06:47:50;;;;;;;13.15;4.75;;;24.70;57.70;;;;;;6394942;22;20437;-79
2021/01/03 06:51:09;;;;;;;9.85;4.57;;;24.70;57.60;;;;;;6396481;22;20074;-74
2021/01/03 06:53:41;;;;;;;8.93;3.88;;;24.70;57.50;;;;;;6395029;22;20002;-72
2021/01/03 06:57:01;;;;;;;12.85;5.25;;;24.80;57.40;;;;;;6396602;22;19989;-81
2021/01/03 06:59:40;;;;;;;14.68;3.97;;;24.90;57.30;;;;;;6394311;22;20344;-74
2021/01/03 07:02:46;;;;;;;13.02;3.45;;;24.90;57.10;;;;;;6396676;22;19998;-77
2021/01/03 07:05:32;;;;;;;;;;;25.00;57.00;;;;;;6397216;22;20006;-74
2021/01/03 07:08:41;;;;;;;11.88;4.88;;;25.00;56.80;;;;;;6397239;22;19906;-76
2021/01/03 07:11:45;;;;;;;16.13;4.10;;;25.10;56.70;;;;;;6397725;22;20002;-80
2021/01/03 07:14:23;;;;;;;12.85;3.85;;;25.10;56.60;;;;;;6395911;22;20069;-75
2021/01/03 07:16:56;;;;;;;9.88;3.25;;;25.20;56.50;;;;;;6397748;22;20010;-76
2021/01/03 07:20:10;;;;;;;19.15;4.10;;;25.20;56.50;;;;;;6396821;22;20047;-76
2021/01/03 07:23:01;;;;;;;10.57;3.50;;;25.30;56.40;;;;;;6395226;22;20001;-79
2021/01/03 07:26:02;;;;;;;9.82;6.05;;;25.30;56.10;;;;;;6397290;22;20014;-78
2021/01/03 07:28:32;;;;;;;12.05;5.63;;;25.40;56.00;;;;;;6323087;22;20085;-76
2021/01/03 07:31:04;;;;;;;12.23;3.30;;;25.50;55.60;;;;;;6395947;22;20001;-75
2021/01/03 07:33:57;;;;;;;23.10;3.70;;;25.70;55.20;;;;;;6397145;22;20073;-74
2021/01/03 07:36:35;;;;;;;16.35;4.53;;;25.90;54.50;;;;;;6375290;22;20010;-79
2021/01/03 07:39:13;;;;;;;15.75;4.82;;;26.00;54.10;;;;;;6398448;22;20001;-76
2021/01/03 07:41:40;;;;;;;12.82;3.53;;;26.20;54.00;;;;;;6399200;22;20002;-78
2021/01/03 07:44:32;;;;;;;16.15;4.00;;;26.30;53.90;;;;;;6397725;22;20013;-79
2021/01/03 07:47:00;;;;;;;8.40;3.40;;;26.40;53.40;;;;;;6378227;22;20006;-79
2021/01/03 07:49:31;;;;;;;14.90;4.00;;;26.50;52.90;;;;;;6398809;22;20004;-76
2021/01/03 07:52:01;;;;;;;10.32;4.75;;;26.60;52.50;;;;;;6399238;22;20042;-78
2021/01/03 07:54:29;;;;;;;16.48;3.75;;;26.60;52.30;;;;;;6371231;22;20001;-76
2021/01/03 07:56:56;;;;;;;12.27;3.58;;;26.80;52.10;;;;;;6397797;22;20026;-79
2021/01/03 07:59:24;;;;;;;8.57;3.85;;;26.90;51.80;;;;;;6398794;22;20014;-77
2021/01/03 08:01:53;;;;;;;9.38;3.33;;;27.00;51.30;;;;;;6397537;22;20072;-77
2021/01/03 08:04:31;;;;;;;10.75;4.07;;;27.00;50.70;;;;;;6398490;22;20029;-78
2021/01/03 08:07:15;;;;;;;7.10;2.58;;;27.20;50.10;;;;;;6398284;22;20471;-76
2021/01/03 08:09:42;;;;;;;11.45;3.33;;;27.20;50.10;;;;;;6370590;22;20000;-81
2021/01/03 08:12:23;;;;;;;7.90;2.90;;;27.30;50.00;;;;;;6399677;22;20002;-78
2021/01/03 08:15:08;;;;;;;10.30;3.33;;;27.40;49.70;;;;;;6397625;22;20013;-80
2021/01/03 08:17:41;;;;;;;9.90;2.70;;;27.40;49.20;;;;;;6398888;22;19998;-81
2021/01/03 08:20:24;;;;;;;12.48;3.13;;;27.50;49.20;;;;;;6398878;22;19997;-77
2021/01/03 08:22:51;;;;;;;10.52;3.17;;;27.60;48.60;;;;;;6398097;22;20362;-78
2021/01/03 08:25:29;;;;;;;8.07;2.70;;;27.60;48.70;;;;;;6399268;22;20070;-74
2021/01/03 08:28:04;;;;;;;8.10;3.45;;;27.70;48.90;;;;;;6397989;22;20009;-78
2021/01/03 08:30:34;;;;;;;12.20;2.75;;;27.80;48.60;;;;;;6398854;22;19993;-72
2021/01/03 08:33:08;;;;;;;11.18;3.00;;;27.90;47.90;;;;;;6400034;22;19997;-76
2021/01/03 08:35:34;;;;;;;24.30;8.35;;;28.00;47.50;;;;;;6399037;22;19994;-86
2021/01/03 08:38:01;;;;;;;45.10;24.42;;;28.00;48.00;;;;;;6398614;22;20077;-77
2021/01/03 08:40:29;;;;;;;33.90;13.68;;;28.10;48.10;;;;;;6397922;22;20101;-77
2021/01/03 08:43:05;;;;;;;15.18;5.38;;;28.20;48.20;;;;;;6398788;22;20448;-76
2021/01/03 08:45:38;;;;;;;17.85;3.50;;;28.30;47.60;;;;;;6397607;22;20009;-78
2021/01/03 08:48:07;;;;;;;11.40;4.50;;;28.30;47.30;;;;;;6397900;22;19998;-77
2021/01/03 08:50:37;;;;;;;12.48;3.30;;;28.40;46.70;;;;;;6397851;22;20001;-77
2021/01/03 08:53:14;;;;;;;9.05;2.97;;;28.40;46.60;;;;;;6396776;22;19994;-77
2021/01/03 08:55:41;;;;;;;10.73;3.78;;;28.50;46.40;;;;;;6397548;22;20029;-77
2021/01/03 08:58:19;;;;;;;13.52;3.35;;;28.60;46.80;;;;;;6397042;22;20368;-76
2021/01/03 09:00:58;;;;;;;10.75;3.63;;;28.60;47.10;;;;;;6398365;22;19998;-78
2021/01/03 09:03:26;;;;;;;10.57;3.75;;;28.70;47.20;;;;;;6369891;22;20039;-73
2021/01/03 09:05:53;;;;;;;13.20;3.42;;;28.70;46.50;;;;;;6397018;22;20006;-73
2021/01/03 09:08:42;;;;;;;10.73;3.10;;;28.70;45.80;;;;;;6397948;22;20097;-71
2021/01/03 09:11:13;;;;;;;9.07;3.20;;;28.70;45.80;;;;;;6396995;22;19998;-71
2021/01/03 09:13:57;;;;;;;8.23;2.00;;;28.80;45.50;;;;;;6397995;22;20456;-73
2021/01/03 09:16:43;;;;;;;11.82;3.42;;;28.80;45.30;;;;;;6397871;22;20002;-72
2021/01/03 09:19:12;;;;;;;11.48;3.75;;;28.90;45.40;;;;;;6396562;22;20082;-73
2021/01/03 09:21:53;;;;;;;7.15;2.72;;;28.90;45.50;;;;;;6398503;22;20093;-76
2021/01/03 09:24:32;;;;;;;9.02;3.03;;;29.00;45.70;;;;;;6397242;22;20013;-73
2021/01/03 09:27:01;;;;;;;9.35;3.20;;;29.10;46.20;;;;;;6397839;22;20108;-73
2021/01/03 09:29:40;;;;;;;10.45;3.00;;;29.00;46.40;;;;;;6369093;22;20398;-72
2021/01/03 09:32:36;;;;;;;10.35;3.63;;;28.90;46.80;;;;;;6394208;22;20473;-74
2021/01/03 09:35:24;;;;;;;12.10;3.42;;;28.80;47.00;;;;;;6386687;22;20014;-74
2021/01/03 09:38:21;;;;;;;8.65;3.00;;;28.80;47.20;;;;;;6394027;22;20028;-73
2021/01/03 09:41:16;;;;;;;12.38;5.70;;;28.70;47.40;;;;;;6393207;22;20004;-73
2021/01/03 09:44:11;;;;;;;11.50;4.20;;;28.60;47.80;;;;;;6394644;22;20020;-71
2021/01/03 09:47:06;;;;;;;8.37;3.17;;;28.60;48.30;;;;;;6394036;22;20014;-73
2021/01/03 09:49:41;;;;;;;;;;;28.60;49.00;;;;;;6393425;22;20033;-74
2021/01/03 09:52:41;;;;;;;14.23;3.97;;;28.50;49.30;;;;;;6393962;22;20313;-77
2021/01/03 09:55:12;;;;;;;9.68;3.10;;;28.50;49.90;;;;;;6393322;22;20005;-78
2021/01/03 09:57:54;;;;;;;12.38;3.25;;;28.40;50.90;;;;;;6396459;22;19998;-75
2021/01/03 10:00:22;;;;;;;10.02;3.42;;;28.50;50.60;;;;;;6397622;22;20009;-70
2021/01/03 10:02:49;;;;;;;10.05;3.53;;;28.60;51.60;;;;;;6395530;22;20421;-72
2021/01/03 10:05:29;;;;;;;21.95;6.18;;;28.60;51.00;;;;;;6397633;22;20036;-73
2021/01/03 10:08:08;;;;;;;23.75;12.88;;;28.60;50.80;;;;;;6396885;22;20383;-77
2021/01/03 10:11:00;;;;;;;12.65;5.03;;;28.70;51.20;;;;;;6397650;22;20085;-79
2021/01/03 10:13:30;;;;;;;20.25;6.20;;;28.70;51.00;;;;;;6390544;22;20016;-72
2021/01/03 10:15:58;;;;;;;17.45;5.75;;;28.70;51.00;;;;;;6395713;22;20452;-75
2021/01/03 10:18:35;;;;;;;12.95;3.92;;;28.80;50.90;;;;;;6398121;22;20405;-72
2021/01/03 10:21:18;;;;;;;14.32;3.85;;;28.80;50.70;;;;;;6397220;22;19994;-79
2021/01/03 10:23:44;;;;;;;9.88;3.38;;;28.80;50.60;;;;;;6368610;22;20013;-82
2021/01/03 10:26:25;;;;;;;18.52;4.50;;;28.80;50.60;;;;;;6397515;22;20014;-72
2021/01/03 10:28:51;;;;;;;11.77;4.55;;;28.90;50.50;;;;;;6397170;22;20009;-76
2021/01/03 10:31:18;;;;;;;12.13;4.90;;;28.90;50.50;;;;;;6397562;22;20417;-78
2021/01/03 10:33:46;;;;;;;16.40;4.03;;;28.90;50.30;;;;;;6396222;22;20013;-75
2021/01/03 10:36:23;;;;;;;15.10;3.75;;;29.10;50.90;;;;;;6397104;22;20047;-80
2021/01/03 10:38:50;;;;;;;13.93;4.70;;;29.30;50.40;;;;;;6396801;22;20380;-75
2021/01/03 10:41:17;;;;;;;17.88;5.10;;;29.50;49.10;;;;;;6395747;22;20002;-77
2021/01/03 10:43:46;;;;;;;11.60;3.28;;;29.80;48.90;;;;;;6397517;22;20005;-73
2021/01/03 10:46:12;;;;;;;16.40;4.35;;;30.00;49.20;;;;;;6395890;22;19998;-73
2021/01/03 10:48:39;;;;;;;30.80;18.73;;;30.10;49.10;;;;;;6397354;22;20001;-72
2021/01/03 10:51:05;;;;;;;17.88;9.13;;;30.20;48.50;;;;;;6396815;22;20105;-75
2021/01/03 10:53:32;;;;;;;16.75;4.25;;;30.30;48.30;;;;;;6367945;22;20013;-74
2021/01/03 10:56:00;;;;;;;13.95;4.28;;;30.40;47.90;;;;;;6396665;22;19998;-72
2021/01/03 10:58:27;;;;;;;16.27;6.90;;;30.40;48.10;;;;;;6396468;22;19994;-74
2021/01/03 11:00:53;;;;;;;14.15;3.92;;;30.50;48.70;;;;;;6397883;22;20004;-75
2021/01/03 11:03:20;;;;;;;22.50;5.32;;;30.50;49.30;;;;;;6396257;22;19994;-74
2021/01/03 11:05:46;;;;;;;21.58;7.68;;;30.60;49.30;;;;;;6397887;22;19998;-73
2021/01/03 11:08:13;;;;;;;26.13;7.78;;;30.60;48.80;;;;;;6396788;22;19994;-71
2021/01/03 11:10:39;;;;;;;12.20;3.90;;;30.70;48.90;;;;;;6397399;22;20002;-72
2021/01/03 11:13:06;;;;;;;13.82;3.75;;;30.70;48.60;;;;;;6396863;22;19994;-70
2021/01/03 11:15:32;;;;;;;18.60;4.70;;;30.70;48.60;;;;;;6399284;22;19998;-71
2021/01/03 11:17:58;;;;;;;13.80;4.80;;;30.70;48.90;;;;;;6399317;22;19997;-70
2021/01/03 11:20:25;;;;;;;17.27;4.25;;;30.60;48.90;;;;;;6369845;22;19994;-72
2021/01/03 11:22:51;;;;;;;16.08;4.30;;;30.60;49.10;;;;;;6399750;22;20001;-71
2021/01/03 11:25:18;;;;;;;37.47;30.10;;;30.50;49.20;;;;;;6398106;22;20006;-71
2021/01/03 11:27:45;;;;;;;16.50;8.30;;;30.40;49.30;;;;;;6399554;22;20107;-71
2021/01/03 11:30:11;;;;;;;15.70;7.20;;;30.40;49.40;;;;;;6398113;22;20112;-73
2021/01/03 11:32:38;;;;;;;19.92;10.63;;;30.30;49.70;;;;;;6398576;22;20322;-73
2021/01/03 11:35:06;;;;;;;39.53;29.88;;;30.30;49.90;;;;;;6398415;22;20025;-72
2021/01/03 11:37:32;;;;;;;53.90;37.88;;;30.30;50.00;;;;;;6398451;22;20002;-72
2021/01/03 11:39:59;;;;;;;42.40;29.88;;;30.30;50.00;;;;;;6398967;22;20001;-74
2021/01/03 11:42:28;;;;;;;33.55;24.15;;;30.30;50.00;;;;;;6397772;22;20067;-75
2021/01/03 11:44:55;;;;;;;28.02;15.40;;;30.40;49.90;;;;;;6399119;22;20006;-74
2021/01/03 11:47:22;;;;;;;25.40;13.25;;;30.30;49.90;;;;;;6398165;22;20460;-74
2021/01/03 11:49:49;;;;;;;22.20;15.95;;;30.40;50.00;;;;;;6399164;22;20066;-72
2021/01/03 11:52:15;;;;;;;43.45;30.75;;;30.40;50.20;;;;;;6398042;22;20002;-77
2021/01/03 11:54:42;;;;;;;21.52;11.25;;;30.40;50.50;;;;;;6398824;22;20035;-76
2021/01/03 11:57:09;;;;;;;19.50;10.45;;;30.40;51.00;;;;;;6398734;22;20005;-76
2021/01/03 11:59:35;;;;;;;15.98;7.03;;;30.40;51.00;;;;;;6398009;22;20051;-82
2021/01/03 12:02:05;;;;;;;21.38;15.35;;;30.40;51.10;;;;;;6398373;22;19998;-76
2021/01/03 12:04:32;;;;;;;19.40;8.05;;;30.40;51.10;;;;;;6398073;22;20445;-75
2021/01/03 12:07:03;;;;;;;21.27;9.52;;;30.40;51.30;;;;;;6370847;22;20009;-71
2021/01/03 12:09:30;;;;;;;17.92;8.40;;;30.40;51.30;;;;;;6398667;22;20069;-72
2021/01/03 12:12:01;;;;;;;18.98;12.73;;;30.40;51.30;;;;;;6398391;22;20339;-75
2021/01/03 12:14:28;;;;;;;20.92;10.27;;;30.40;51.30;;;;;;6398770;22;20082;-73
2021/01/03 12:17:00;;;;;;;15.85;7.10;;;30.40;51.20;;;;;;6397747;22;19998;-73
2021/01/03 12:19:28;;;;;;;20.67;6.13;;;30.50;51.20;;;;;;6398626;22;20039;-78
2021/01/03 12:21:59;;;;;;;15.55;5.65;;;30.60;51.30;;;;;;6398000;22;20290;-73
2021/01/03 12:24:26;;;;;;;18.55;8.57;;;30.60;51.10;;;;;;6398110;22;20010;-75
2021/01/03 12:26:53;;;;;;;18.25;7.82;;;30.60;51.10;;;;;;6398280;22;20089;-73
2021/01/03 12:29:20;;;;;;;17.13;9.75;;;30.60;51.10;;;;;;6397891;22;20005;-73
2021/01/03 12:31:53;;;;;;;21.45;8.10;;;30.60;51.20;;;;;;6399780;22;19998;-73
2021/01/03 12:34:21;;;;;;;18.80;10.00;;;30.60;51.20;;;;;;6397262;22;19994;-76
2021/01/03 12:36:48;;;;;;;22.95;8.75;;;30.60;51.20;;;;;;6398579;22;20017;-76
2021/01/03 12:39:17;;;;;;;24.23;8.27;;;30.70;51.10;;;;;;6397329;22;20422;-72
2021/01/03 12:42:23;;;;;;;23.92;8.70;;;30.70;51.10;;;;;;6396195;22;20058;-82
2021/01/03 12:45:29;;;;;;;67.70;53.83;;;30.80;51.10;;;;;;6391533;22;20013;-83
2021/01/03 12:47:55;;;;;;;32.03;21.70;;;30.80;51.60;;;;;;6395130;22;20006;-75
2021/01/03 12:50:22;;;;;;;30.70;12.38;;;30.80;50.90;;;;;;6397715;22;20032;-78
2021/01/03 12:52:49;;;;;;;25.10;14.20;;;30.80;50.90;;;;;;6398512;22;20546;-76
2021/01/03 12:55:16;;;;;;;89.68;80.05;;;30.80;50.90;;;;;;6397196;22;20035;-76
2021/01/03 12:57:42;;;;;;;80.80;66.90;;;30.80;50.90;;;;;;6398202;22;20016;-76
2021/01/03 13:00:09;;;;;;;33.47;25.02;;;30.80;50.90;;;;;;6396525;22;20025;-75
2021/01/03 13:02:36;;;;;;;28.75;16.55;;;30.80;50.90;;;;;;6398042;22;19998;-75
2021/01/03 13:05:03;;;;;;;33.78;20.65;;;30.80;51.00;;;;;;6397029;22;20067;-73
2021/01/03 13:07:29;;;;;;;23.95;16.10;;;30.80;51.10;;;;;;6397452;22;19998;-82
2021/01/03 13:09:56;;;;;;;50.78;43.05;;;30.90;51.10;;;;;;6397446;22;19998;-75
2021/01/03 13:12:22;;;;;;;27.05;15.07;;;30.90;51.10;;;;;;6397167;22;20002;-74
2021/01/03 13:14:48;;;;;;;22.92;11.77;;;30.90;51.00;;;;;;6396862;22;20001;-74
2021/01/03 13:17:15;;;;;;;22.90;14.15;;;30.90;51.00;;;;;;6396733;22;20032;-76
2021/01/03 13:19:41;;;;;;;31.55;13.38;;;30.90;50.90;;;;;;6397837;22;20071;-72
2021/01/03 13:22:08;;;;;;;23.55;10.48;;;30.90;50.90;;;;;;6395331;22;20050;-73
2021/01/03 13:24:34;;;;;;;20.33;9.25;;;30.90;51.00;;;;;;6396643;22;20001;-72
2021/01/03 13:27:01;;;;;;;23.00;7.68;;;30.90;51.00;;;;;;6395079;22;20021;-72
2021/01/03 13:29:27;;;;;;;19.48;9.23;;;30.90;51.00;;;;;;6368128;22;20001;-72
2021/01/03 13:32:01;;;;;;;25.00;13.55;;;30.90;50.90;;;;;;6396027;22;20022;-73
2021/01/03 13:34:28;;;;;;;23.88;8.55;;;30.90;50.90;;;;;;6395735;22;20023;-76
2021/01/03 13:36:55;;;;;;;16.48;5.90;;;30.90;51.00;;;;;;6396333;22;20043;-77
2021/01/03 13:39:21;;;;;;;17.95;6.03;;;30.90;51.00;;;;;;6395011;22;20040;-79
2021/01/03 13:41:49;;;;;;;18.33;5.07;;;30.90;51.00;;;;;;6396792;22;20032;-73
2021/01/03 13:44:16;;;;;;;20.10;6.00;;;30.80;51.00;;;;;;6394999;22;20437;-74
2021/01/03 13:46:42;;;;;;;15.25;5.47;;;30.90;51.10;;;;;;6396546;22;20001;-75
2021/01/03 13:49:09;;;;;;;14.57;6.05;;;30.90;51.10;;;;;;6396269;22;20472;-79
2021/01/03 13:51:38;;;;;;;21.73;6.38;;;30.90;51.20;;;;;;6396022;22;20441;-79
2021/01/03 13:54:04;;;;;;;22.25;7.40;;;30.90;51.10;;;;;;6397407;22;19998;-77
2021/01/03 13:56:36;;;;;;;20.75;5.70;;;30.90;51.00;;;;;;6395288;22;20004;-73
2021/01/03 13:59:04;;;;;;;13.30;5.10;;;30.90;51.10;;;;;;6396309;22;19998;-79
2021/01/03 14:01:35;;;;;;;15.48;5.25;;;30.90;51.20;;;;;;6395932;22;20498;-79